Time;durP1;ratioP1;P1;durP2;ratioP2;P2;SDS_P1;SDS_P2;PMS_P1;PMS_P2;Temp;Humidity;BMP_temperature;BMP_pressure;BME280_temperature;BME280_humidity;BME280_pressure;Samples;Min_cycle;Max_cycle;Signal;HPM_P1;HPM_P2
2021/08/05 00:02:03;;;;;;;;;;;;;;;28.39;38.46;100565.00;5097840;28;1176;-34
2021/08/05 00:04:28;;;;;;;;;;;;;;;28.29;38.25;100563.44;5078038;28;1191;-37
2021/08/05 00:06:53;;;;;;;;;;;;;;;28.34;38.04;100560.19;5077142;28;1914;-36
2021/08/05 00:09:19;;;;;;;;;;;;;;;28.43;38.23;100567.09;5077892;28;772;-36
2021/08/05 00:11:44;;;;;;;;;;;;;;;28.41;38.66;100569.16;5077283;28;836;-35
2021/08/05 00:14:09;;;;;;;;;;;;;;;28.48;39.05;100574.63;5077256;28;764;-35
2021/08/05 00:16:35;;;;;;;;;;;;;;;28.52;39.41;100575.91;5077765;28;752;-37
2021/08/05 00:19:00;;;;;;;;;;;;;;;28.63;38.97;100582.63;5077336;28;763;-30
2021/08/05 00:21:25;;;;;;;;;;;;;;;28.63;38.58;100579.13;5094618;28;939;-36
2021/08/05 00:23:51;;;;;;;;;;;;;;;28.57;38.18;100580.72;5097766;28;918;-35
2021/08/05 00:26:16;;;;;;;;;;;;;;;28.35;38.25;100581.63;5077288;28;1969;-36
2021/08/05 00:28:41;;;;;;;;;;;;;;;28.19;38.33;100589.97;5077153;28;789;-34
2021/08/05 00:31:07;;;;;;;;;;;;;;;28.27;38.87;100580.88;5077470;28;784;-32
2021/08/05 00:33:32;;;;;;;;;;;;;;;28.14;37.74;100589.72;5076690;28;890;-29
2021/08/05 00:35:57;;;;;;;;;;;;;;;28.17;38.51;100584.75;5090563;28;951;-33
2021/08/05 00:38:23;;;;;;;;;;;;;;;28.45;40.45;100580.44;5097942;28;764;-34
2021/08/05 00:40:48;;;;;;;;;;;;;;;28.52;40.97;100585.91;5097041;28;813;-34
2021/08/05 00:43:14;;;;;;;;;;;;;;;28.62;40.93;100589.09;5096991;28;817;-36
2021/08/05 00:45:39;;;;;;;;;;;;;;;28.63;39.64;100589.94;5097165;28;815;-30
2021/08/05 00:48:05;;;;;;;;;;;;;;;28.57;38.69;100583.44;5097163;28;1902;-38
2021/08/05 00:50:31;;;;;;;;;;;;;;;28.60;38.64;100583.03;5096524;28;1014;-34
2021/08/05 00:52:56;;;;;;;;;;;;;;;28.49;38.66;100579.03;5097155;28;824;-34
2021/08/05 00:55:21;;;;;;;;;;;;;;;28.55;38.41;100574.66;5096574;28;1082;-36
2021/08/05 00:57:46;;;;;;;;;;;;;;;28.53;38.34;100572.16;5096300;28;521;-36
2021/08/05 01:00:12;;;;;;;;;;;;;;;28.59;38.33;100581.38;5097076;28;803;-36
2021/08/05 01:02:38;;;;;;;;;;;;;;;28.50;39.34;100574.41;5097038;28;744;-36
2021/08/05 01:05:04;;;;;;;;;;;;;;;28.57;39.44;100565.34;5072121;28;982;-30
2021/08/05 01:07:32;;;;;;;;;;;;;;;28.57;40.21;100559.94;5058760;28;1968;-35
2021/08/05 01:10:11;;;;;;;;;;;;;;;28.73;39.74;100558.78;5058948;28;815;-36
2021/08/05 01:12:46;;;;;;;;;;;;;;;28.70;38.88;100559.19;5058080;28;573;-35
2021/08/05 01:15:16;;;;;;;;;;;;;;;28.58;38.00;100550.75;5058267;28;835;-32
2021/08/05 01:17:52;;;;;;;;;;;;;;;28.56;37.74;100550.13;5058574;28;796;-36
2021/08/05 01:20:18;;;;;;;;;;;;;;;28.47;37.96;100537.78;5084518;28;927;-36
2021/08/05 01:22:48;;;;;;;;;;;;;;;28.55;37.74;100534.09;5078606;28;808;-32
2021/08/05 01:25:26;;;;;;;;;;;;;;;28.57;38.03;100532.88;5067029;28;1155;-37
2021/08/05 01:27:51;;;;;;;;;;;;;;;28.57;37.87;100532.88;5058132;28;1898;-37
2021/08/05 01:30:17;;;;;;;;;;;;;;;28.55;38.42;100529.53;5076541;28;848;-35
2021/08/05 01:32:42;;;;;;;;;;;;;;;28.57;39.07;100532.03;5058535;28;760;-31
2021/08/05 01:35:08;;;;;;;;;;;;;;;28.61;39.23;100527.91;5064482;28;1011;-38
2021/08/05 01:37:33;;;;;;;;;;;;;;;28.65;39.12;100537.28;5078133;28;864;-38
2021/08/05 01:39:58;;;;;;;;;;;;;;;28.62;38.76;100534.13;5096613;28;764;-37
2021/08/05 01:42:23;;;;;;;;;;;;;;;28.52;38.42;100527.22;5096066;28;846;-36
2021/08/05 01:44:52;;;;;;;;;;;;;;;28.50;38.27;100528.44;5078500;28;811;-37
2021/08/05 01:47:18;;;;;;;;;;;;;;;28.56;37.96;100522.25;5078573;28;1952;-36
2021/08/05 01:49:43;;;;;;;;;;;;;;;28.56;38.15;100514.94;5076603;28;963;-37
2021/08/05 01:52:08;;;;;;;;;;;;;;;28.54;38.73;100510.78;5078436;28;776;-36
2021/08/05 01:54:34;;;;;;;;;;;;;;;28.56;39.17;100514.94;5096353;28;1231;-37
2021/08/05 01:56:59;;;;;;;;;;;;;;;28.63;39.43;100514.16;5096215;28;791;-33
2021/08/05 01:59:24;;;;;;;;;;;;;;;28.64;39.66;100513.97;5096440;28;855;-37
2021/08/05 02:01:49;;;;;;;;;;;;;;;28.75;39.02;100503.59;5096107;28;778;-34
2021/08/05 02:04:41;;;;;;;;;;;;;;;28.72;38.38;100504.84;5077568;28;981;-37
2021/08/05 02:07:12;;;;;;;;;;;;;;;28.57;38.34;100497.69;5044890;28;1977;-33
2021/08/05 02:09:54;;;;;;;;;;;;;;;28.57;37.93;100504.97;5076278;28;795;-37
2021/08/05 02:12:20;;;;;;;;;;;;;;;28.49;38.41;100508.66;5058186;28;792;-34
2021/08/05 02:14:45;;;;;;;;;;;;;;;28.60;38.02;100505.41;5076144;28;795;-35
2021/08/05 02:17:10;;;;;;;;;;;;;;;28.63;38.60;100500.63;5057917;28;768;-37
2021/08/05 02:19:36;;;;;;;;;;;;;;;28.60;39.13;100500.00;5059317;28;920;-37
2021/08/05 02:22:01;;;;;;;;;;;;;;;28.59;39.61;100503.72;5096242;28;791;-37
2021/08/05 02:24:30;;;;;;;;;;;;;;;28.75;39.32;100493.59;5075794;28;1229;-36
2021/08/05 02:26:55;;;;;;;;;;;;;;;28.66;38.19;100492.94;5079535;28;1910;-37
2021/08/05 02:29:20;;;;;;;;;;;;;;;28.48;37.86;100497.00;5061251;28;1410;-37
2021/08/05 02:31:46;;;;;;;;;;;;;;;28.52;37.67;100500.16;5060867;28;830;-34
2021/08/05 02:34:11;;;;;;;;;;;;;;;28.44;37.76;100498.44;5079337;28;847;-37
2021/08/05 02:36:37;;;;;;;;;;;;;;;28.56;37.38;100493.28;5080588;28;952;-33
2021/08/05 02:39:03;;;;;;;;;;;;;;;28.40;37.86;100499.03;5081417;28;1451;-37
2021/08/05 02:41:28;;;;;;;;;;;;;;;28.47;37.64;100491.78;5099465;28;776;-37
2021/08/05 02:43:54;;;;;;;;;;;;;;;28.56;38.17;100489.78;5099575;28;807;-37
2021/08/05 02:46:19;;;;;;;;;;;;;;;28.65;38.36;100496.69;5080500;28;1964;-38
2021/08/05 02:48:45;;;;;;;;;;;;;;;28.63;39.15;100496.03;5099315;28;732;-37
2021/08/05 02:51:11;;;;;;;;;;;;;;;28.67;38.99;100497.31;5099113;28;1010;-37
2021/08/05 02:53:36;;;;;;;;;;;;;;;28.67;38.55;100508.16;5099204;28;1040;-37
2021/08/05 02:56:01;;;;;;;;;;;;;;;28.62;37.78;100502.50;5099180;28;772;-33
2021/08/05 02:58:26;;;;;;;;;;;;;;;28.47;37.92;100505.31;5081312;28;793;-36
2021/08/05 03:00:52;;;;;;;;;;;;;;;28.51;37.95;100503.06;5081056;28;1262;-31
2021/08/05 03:03:20;;;;;;;;;;;;;;;28.52;37.78;100500.16;5099234;28;819;-36
2021/08/05 03:05:46;;;;;;;;;;;;;;;28.63;37.67;100497.94;5098672;28;1009;-33
2021/08/05 03:08:12;;;;;;;;;;;;;;;28.60;38.09;100499.16;5098715;28;1901;-36
2021/08/05 03:10:37;;;;;;;;;;;;;;;28.64;38.61;100507.72;5099231;28;807;-37
2021/08/05 03:13:02;;;;;;;;;;;;;;;28.64;40.15;100510.41;5098963;28;823;-32
2021/08/05 03:15:29;;;;;;;;;;;;;;;28.13;51.10;100513.16;5099224;28;797;-32
2021/08/05 03:17:54;;;;;;;;;;;;;;;27.68;52.85;100516.03;5098283;28;792;-36
2021/08/05 03:20:20;;;;;;;;;;;;;;;27.63;51.99;100506.66;5098248;28;919;-32
2021/08/05 03:22:45;;;;;;;;;;;;;;;27.61;54.87;100513.31;5098971;28;866;-32
2021/08/05 03:25:10;;;;;;;;;;;;;;;26.80;60.35;100513.16;5098574;28;1095;-31
2021/08/05 03:27:36;;;;;;;;;;;;;;;27.16;59.61;100510.72;5098767;28;1959;-30
2021/08/05 03:30:01;;;;;;;;;;;;;;;27.51;58.52;100514.44;5099233;28;732;-32
2021/08/05 03:32:28;;;;;;;;;;;;;;;26.81;62.34;100509.41;5098262;28;740;-32
2021/08/05 03:34:53;;;;;;;;;;;;;;;27.87;54.70;100509.19;5098072;28;951;-32
2021/08/05 03:37:18;;;;;;;;;;;;;;;27.97;55.28;100514.28;5098606;28;859;-37
2021/08/05 03:39:44;;;;;;;;;;;;;;;28.08;55.47;100521.00;5098375;28;763;-31
2021/08/05 03:42:09;;;;;;;;;;;;;;;28.23;53.76;100519.06;5098716;28;812;-36
2021/08/05 03:44:34;;;;;;;;;;;;;;;27.66;48.63;100515.44;5098686;28;736;-37
2021/08/05 03:46:59;;;;;;;;;;;;;;;28.28;50.22;100515.75;5098155;28;1906;-37
2021/08/05 03:49:25;;;;;;;;;;;;;;;28.16;54.40;100526.28;5081777;28;1135;-30
2021/08/05 03:51:50;;;;;;;;;;;;;;;27.47;59.77;100523.97;5098230;28;751;-33
2021/08/05 03:54:21;;;;;;;;;;;;;;;27.89;58.83;100528.78;5097520;28;1046;-34
2021/08/05 03:56:47;;;;;;;;;;;;;;;28.03;59.17;100521.59;5097935;28;830;-32
2021/08/05 03:59:12;;;;;;;;;;;;;;;28.10;59.05;100517.09;5098056;28;779;-30
2021/08/05 04:01:37;;;;;;;;;;;;;;;28.66;57.56;100519.19;5097806;28;802;-34
2021/08/05 04:04:03;;;;;;;;;;;;;;;28.75;57.35;100523.38;5098077;28;822;-34
2021/08/05 04:06:28;;;;;;;;;;;;;;;28.94;56.15;100521.00;5097756;28;1917;-29
2021/08/05 04:08:53;;;;;;;;;;;;;;;29.05;56.36;100517.72;5097913;28;859;-33
2021/08/05 04:11:18;;;;;;;;;;;;;;;28.93;56.82;100522.00;5097488;28;803;-32
2021/08/05 04:13:44;;;;;;;;;;;;;;;29.00;57.06;100513.94;5098120;28;815;-32
2021/08/05 04:16:09;;;;;;;;;;;;;;;29.08;56.60;100514.63;5097511;28;850;-35
2021/08/05 04:18:34;;;;;;;;;;;;;;;29.24;52.19;100515.31;5097383;28;810;-31
2021/08/05 04:20:59;;;;;;;;;;;;;;;29.27;52.73;100519.47;5097265;28;939;-33
2021/08/05 04:23:25;;;;;;;;;;;;;;;29.36;53.03;100514.72;5097476;28;806;-35
2021/08/05 04:25:50;;;;;;;;;;;;;;;29.31;54.52;100515.34;5097527;28;1087;-32
2021/08/05 04:28:15;;;;;;;;;;;;;;;29.32;54.50;100514.28;5097598;28;1906;-34
2021/08/05 04:30:41;;;;;;;;;;;;;;;29.39;51.82;100515.16;5097199;28;799;-31
2021/08/05 04:33:06;;;;;;;;;;;;;;;29.41;50.73;100504.91;5097206;28;747;-34
2021/08/05 04:35:31;;;;;;;;;;;;;;;29.38;49.38;100504.50;5096407;28;958;-37
2021/08/05 04:37:57;;;;;;;;;;;;;;;29.33;49.38;100505.09;5096920;28;771;-31
2021/08/05 04:40:23;;;;;;;;;;;;;;;29.38;48.08;100502.63;5097581;28;760;-31
2021/08/05 04:42:48;;;;;;;;;;;;;;;29.51;47.75;100498.28;5097148;28;815;-30
2021/08/05 04:45:14;;;;;;;;;;;;;;;29.46;48.17;100498.91;5096491;28;815;-35
2021/08/05 04:48:08;;;;;;;;;;;;;;;29.43;48.21;100499.28;5096807;28;1897;-31
2021/08/05 04:50:34;;;;;;;;;;;;;;;29.32;48.86;100489.91;5078847;28;1364;-38
2021/08/05 04:52:59;;;;;;;;;;;;;;;29.38;48.96;100489.06;5096809;28;859;-30
2021/08/05 04:55:25;;;;;;;;;;;;;;;29.37;49.35;100483.84;5094312;28;1130;-31
2021/08/05 04:57:51;;;;;;;;;;;;;;;29.38;49.42;100490.97;5097000;28;759;-33
2021/08/05 05:00:23;;;;;;;;;;;;;;;29.42;48.69;100489.50;5096744;28;688;-33
2021/08/05 05:02:48;;;;;;;;;;;;;;;29.42;48.24;100476.78;5096680;28;799;-33
2021/08/05 05:05:14;;;;;;;;;;;;;;;29.49;47.70;100474.09;5096300;28;939;-32
2021/08/05 05:07:39;;;;;;;;;;;;;;;29.43;47.46;100475.75;5096792;28;1910;-31
2021/08/05 05:10:04;;;;;;;;;;;;;;;29.11;47.45;100467.34;5096775;28;843;-33
2021/08/05 05:12:29;;;;;;;;;;;;;;;29.16;44.12;100466.72;5096809;28;736;-34
2021/08/05 05:14:55;;;;;;;;;;;;;;;29.39;46.03;100465.53;5096685;28;883;-36
2021/08/05 05:17:20;;;;;;;;;;;;;;;29.36;46.40;100469.50;5096571;28;783;-35
2021/08/05 05:19:45;;;;;;;;;;;;;;;29.45;46.46;100467.41;5096012;28;902;-33
2021/08/05 05:22:11;;;;;;;;;;;;;;;29.49;46.75;100470.53;5096738;28;719;-33
2021/08/05 05:24:36;;;;;;;;;;;;;;;29.63;47.73;100471.44;5090008;28;1103;-31
2021/08/05 05:27:01;;;;;;;;;;;;;;;29.49;48.41;100479.53;5076277;28;1963;-34
2021/08/05 05:29:26;;;;;;;;;;;;;;;29.61;48.50;100468.94;5076188;28;887;-34
2021/08/05 05:31:54;;;;;;;;;;;;;;;29.57;48.50;100470.34;5076010;28;768;-31
2021/08/05 05:34:19;;;;;;;;;;;;;;;29.69;48.43;100471.44;5076270;28;1010;-37
2021/08/05 05:36:47;;;;;;;;;;;;;;;29.65;49.99;100466.63;5096040;28;1423;-33
2021/08/05 05:39:13;;;;;;;;;;;;;;;29.72;50.03;100470.19;5096386;28;818;-30
2021/08/05 05:41:38;;;;;;;;;;;;;;;29.77;47.62;100456.84;5096072;28;787;-35
2021/08/05 05:44:03;;;;;;;;;;;;;;;29.66;46.81;100463.72;5096569;28;810;-37
2021/08/05 05:46:29;;;;;;;;;;;;;;;29.57;46.43;100463.06;5096328;28;1894;-33
2021/08/05 05:48:54;;;;;;;;;;;;;;;29.53;46.17;100459.09;5096098;28;818;-36
2021/08/05 05:51:19;;;;;;;;;;;;;;;29.58;45.60;100462.00;5096287;28;1001;-33
2021/08/05 05:53:45;;;;;;;;;;;;;;;29.68;44.26;100460.78;5095812;28;1202;-31
2021/08/05 05:56:12;;;;;;;;;;;;;;;29.78;43.55;100455.78;5096218;28;752;-33
2021/08/05 05:58:37;;;;;;;;;;;;;;;29.77;43.42;100458.72;5098915;28;776;-35
2021/08/05 06:01:03;;;;;;;;;;;;;;;29.82;43.61;100456.22;5100152;28;862;-33
2021/08/05 06:03:28;;;;;;;;;;;;;;;29.80;43.11;100455.59;5100322;28;780;-35
2021/08/05 06:05:53;;;;;;;;;;;;;;;29.78;42.67;100452.25;5099646;28;891;-33
2021/08/05 06:08:19;;;;;;;;;;;;;;;29.71;42.63;100449.56;5099837;28;1913;-35
2021/08/05 06:10:44;;;;;;;;;;;;;;;29.80;42.02;100448.28;5099932;28;850;-33
2021/08/05 06:13:10;;;;;;;;;;;;;;;29.66;41.70;100447.44;5100123;28;779;-30
2021/08/05 06:15:35;;;;;;;;;;;;;;;29.68;41.57;100455.38;5099838;28;870;-34
2021/08/05 06:18:00;;;;;;;;;;;;;;;29.76;42.27;100448.94;5100392;28;752;-36
2021/08/05 06:20:25;;;;;;;;;;;;;;;29.74;41.95;100448.28;5099321;28;970;-31
2021/08/05 06:22:51;;;;;;;;;;;;;;;29.69;41.43;100447.06;5099508;28;760;-33
2021/08/05 06:25:17;;;;;;;;;;;;;;;29.55;41.33;100442.59;5099836;28;1540;-29
2021/08/05 06:27:42;;;;;;;;;;;;;;;29.69;40.90;100438.91;5099926;28;1910;-34
2021/08/05 06:30:08;;;;;;;;;;;;;;;29.63;41.19;100438.91;5098981;28;830;-33
2021/08/05 06:32:33;;;;;;;;;;;;;;;29.49;41.49;100444.28;5099521;28;796;-31
2021/08/05 06:34:59;;;;;;;;;;;;;;;29.62;41.58;100440.78;5099499;28;950;-30
2021/08/05 06:37:24;;;;;;;;;;;;;;;29.54;41.51;100440.94;5099341;28;842;-35
2021/08/05 06:39:49;;;;;;;;;;;;;;;29.54;40.69;100449.09;5099724;28;792;-35
2021/08/05 06:42:15;;;;;;;;;;;;;;;28.97;41.45;100439.38;5099672;28;712;-35
2021/08/05 06:44:40;;;;;;;;;;;;;;;29.42;40.82;100440.72;5098925;28;811;-29
2021/08/05 06:47:05;;;;;;;;;;;;;;;29.36;40.67;100436.13;5099853;28;1902;-30
2021/08/05 06:49:31;;;;;;;;;;;;;;;29.37;40.25;100440.50;5099102;28;955;-35
2021/08/05 06:51:59;;;;;;;;;;;;;;;28.31;40.24;100271.13;5099196;28;794;-36
2021/08/05 06:54:24;;;;;;;;;;;;;;;29.28;40.28;100435.28;5088488;28;1511;-35
2021/08/05 06:56:50;;;;;;;;;;;;;;;29.34;40.08;100436.34;5119683;28;573;-30
2021/08/05 06:59:16;;;;;;;;;;;;;;;29.36;39.87;100426.16;5118771;28;796;-30
2021/08/05 07:01:41;;;;;;;;;;;;;;;29.26;39.86;100431.13;5119814;28;858;-30
2021/08/05 07:04:09;;;;;;;;;;;;;;;29.22;39.74;100425.28;5119725;28;924;-33
2021/08/05 07:06:34;;;;;;;;;;;;;;;29.29;39.46;100426.13;5117864;28;1969;-36
2021/08/05 07:08:59;;;;;;;;;;;;;;;29.24;39.75;100425.91;5119100;28;843;-29
2021/08/05 07:11:25;;;;;;;;;;;;;;;29.31;39.43;100425.94;5119042;28;755;-28
2021/08/05 07:13:50;;;;;;;;;;;;;;;29.17;39.76;100425.06;5119524;28;781;-32
2021/08/05 07:16:15;;;;;;;;;;;;;;;29.16;39.63;100429.63;5119227;28;870;-31
2021/08/05 07:18:41;;;;;;;;;;;;;;;29.26;39.45;100426.53;5119079;28;807;-35
2021/08/05 07:21:06;;;;;;;;;;;;;;;29.28;39.20;100418.22;5118061;28;926;-33
2021/08/05 07:23:31;;;;;;;;;;;;;;;29.37;39.06;100418.84;5118868;28;799;-35
2021/08/05 07:25:56;;;;;;;;;;;;;;;29.40;38.74;100413.84;5101060;28;1142;-35
2021/08/05 07:28:24;;;;;;;;;;;;;;;29.30;38.97;100421.53;5098524;28;1909;-36
2021/08/05 07:30:51;;;;;;;;;;;;;;;29.30;38.91;100408.84;5098167;28;827;-34
2021/08/05 07:33:17;;;;;;;;;;;;;;;29.31;39.02;100407.78;5098599;28;811;-31
2021/08/05 07:35:42;;;;;;;;;;;;;;;29.40;38.69;100413.84;5109708;28;931;-36
2021/08/05 07:38:08;;;;;;;;;;;;;;;29.40;38.52;100397.59;5119358;28;740;-34
2021/08/05 07:40:33;;;;;;;;;;;;;;;29.37;38.47;100408.00;5118602;28;736;-31
2021/08/05 07:42:58;;;;;;;;;;;;;;;29.43;38.75;100405.28;5100683;28;1277;-33
2021/08/05 07:45:24;;;;;;;;;;;;;;;29.35;38.62;100405.50;5118595;28;759;-36
2021/08/05 07:47:49;;;;;;;;;;;;;;;29.33;38.67;100397.56;5118667;28;1909;-35
2021/08/05 07:50:14;;;;;;;;;;;;;;;29.41;38.71;100399.25;5117432;28;942;-34
2021/08/05 07:52:40;;;;;;;;;;;;;;;29.38;38.82;100394.25;5118187;28;787;-34
2021/08/05 07:55:06;;;;;;;;;;;;;;;29.41;38.68;100393.81;5105551;28;1035;-32
2021/08/05 07:57:32;;;;;;;;;;;;;;;29.41;38.50;100393.81;5098351;28;743;-36
2021/08/05 07:59:59;;;;;;;;;;;;;;;29.37;38.66;100398.00;5097821;28;821;-31
2021/08/05 08:02:24;;;;;;;;;;;;;;;29.38;38.67;100393.44;5097154;28;835;-34
2021/08/05 08:04:50;;;;;;;;;;;;;;;29.40;38.74;100384.03;5097846;28;1033;-32
2021/08/05 08:07:15;;;;;;;;;;;;;;;29.40;38.75;100394.88;5097545;28;1905;-34
2021/08/05 08:09:40;;;;;;;;;;;;;;;29.41;38.95;100388.41;5098267;28;804;-36
2021/08/05 08:12:06;;;;;;;;;;;;;;;29.39;39.34;100382.38;5097806;28;803;-33
2021/08/05 08:14:31;;;;;;;;;;;;;;;29.39;39.35;100390.50;5096879;28;827;-35
2021/08/05 08:16:56;;;;;;;;;;;;;;;29.40;39.33;100386.75;5097877;28;779;-32
2021/08/05 08:19:22;;;;;;;;;;;;;;;29.47;39.28;100389.47;5097474;28;994;-35
2021/08/05 08:21:47;;;;;;;;;;;;;;;29.43;39.27;100388.19;5095787;28;859;-33
2021/08/05 08:24:12;;;;;;;;;;;;;;;29.40;39.25;100388.63;5094861;28;1194;-29
2021/08/05 08:26:38;;;;;;;;;;;;;;;29.38;39.54;100380.69;5077351;28;1890;-35
2021/08/05 08:29:04;;;;;;;;;;;;;;;29.38;39.58;100377.97;5076250;28;1448;-36
2021/08/05 08:31:29;;;;;;;;;;;;;;;29.37;39.63;100380.91;5077163;28;779;-35
2021/08/05 08:33:54;;;;;;;;;;;;;;;29.44;39.61;100377.19;5077255;28;736;-36
2021/08/05 08:36:20;;;;;;;;;;;;;;;29.37;39.68;100375.47;5093684;28;951;-35
2021/08/05 08:38:45;;;;;;;;;;;;;;;29.39;39.60;100378.81;5097522;28;772;-30
2021/08/05 08:41:12;;;;;;;;;;;;;;;29.41;39.68;100374.84;5097122;28;782;-36
2021/08/05 08:43:38;;;;;;;;;;;;;;;29.30;40.13;100372.78;5096660;28;787;-36
2021/08/05 08:46:03;;;;;;;;;;;;;;;29.41;39.80;100379.47;5097433;28;756;-36
2021/08/05 08:48:28;;;;;;;;;;;;;;;29.42;39.81;100373.84;5079203;28;1910;-33
2021/08/05 08:50:54;;;;;;;;;;;;;;;29.41;39.79;100376.75;5095992;28;954;-34
2021/08/05 08:53:25;;;;;;;;;;;;;;;29.43;39.69;100378.19;5097041;28;808;-32
2021/08/05 08:55:50;;;;;;;;;;;;;;;29.33;39.92;100366.94;5096990;28;1036;-35
2021/08/05 08:58:16;;;;;;;;;;;;;;;29.41;40.03;100374.84;5078189;28;881;-33
2021/08/05 09:00:41;;;;;;;;;;;;;;;29.27;40.18;100373.19;5078615;28;834;-31
2021/08/05 09:03:07;;;;;;;;;;;;;;;29.36;39.97;100369.25;5096829;28;795;-31
2021/08/05 09:05:32;;;;;;;;;;;;;;;29.31;40.21;100372.56;5095579;28;1076;-35
2021/08/05 09:07:58;;;;;;;;;;;;;;;29.47;39.80;100373.19;5078582;28;1974;-35
2021/08/05 09:10:23;;;;;;;;;;;;;;;29.43;39.88;100372.78;5096391;28;757;-35
2021/08/05 09:12:55;;;;;;;;;;;;;;;29.34;40.02;100366.72;5096346;28;823;-35
2021/08/05 09:15:37;;;;;;;;;;;;;;;29.36;40.02;100371.13;5096958;28;728;-32
2021/08/05 09:18:03;;;;;;;;;;;;;;;29.36;40.08;100363.84;5096563;28;863;-34
2021/08/05 09:20:29;;;;;;;;;;;;;;;29.41;39.79;100350.47;5095963;28;958;-35
2021/08/05 09:22:54;;;;;;;;;;;;;;;29.42;40.28;100343.19;5096568;28;765;-31
2021/08/05 09:25:19;;;;;;;;;;;;;;;29.40;40.34;100348.81;5084287;28;1143;-33
2021/08/05 09:27:45;;;;;;;;;;;;;;;29.28;40.77;100336.94;5076032;28;1901;-34
2021/08/05 09:30:10;;;;;;;;;;;;;;;29.42;40.58;100343.19;5076450;28;823;-31
2021/08/05 09:32:36;;;;;;;;;;;;;;;29.43;40.04;100342.97;5075491;28;772;-33
2021/08/05 09:35:09;;;;;;;;;;;;;;;29.39;40.22;100336.31;5064149;28;999;-31
2021/08/05 09:37:35;;;;;;;;;;;;;;;29.39;40.30;100327.34;5096617;28;830;-35
2021/08/05 09:40:07;;;;;;;;;;;;;;;28.36;43.40;100333.59;5096480;28;780;-34
2021/08/05 09:42:32;;;;;;;;;;;;;;;24.34;47.04;100320.56;5077832;28;844;-29
2021/08/05 09:44:59;;;;;;;;;;;;;;;23.74;49.03;100314.66;5096157;28;727;-33
2021/08/05 09:47:25;;;;;;;;;;;;;;;25.71;46.15;100321.19;5096294;28;1954;-34
2021/08/05 09:49:54;;;;;;;;;;;;;;;27.32;43.07;100309.81;5095887;28;950;-33
2021/08/05 09:52:25;;;;;;;;;;;;;;;28.04;42.33;100307.00;5096233;28;817;-29
2021/08/05 09:54:53;;;;;;;;;;;;;;;28.59;41.04;100308.88;5096038;28;1759;-35
2021/08/05 09:57:22;;;;;;;;;;;;;;;28.79;40.72;100301.88;5095451;28;858;-35
2021/08/05 09:59:53;;;;;;;;;;;;;;;28.77;41.08;100306.63;5096009;28;1309;-28
2021/08/05 10:02:18;;;;;;;;;;;;;;;29.01;40.65;100301.72;5096172;28;826;-35
2021/08/05 10:04:45;;;;;;;;;;;;;;;29.09;40.36;100298.81;5095549;28;999;-33
2021/08/05 10:07:11;;;;;;;;;;;;;;;29.12;40.42;100292.13;5095912;28;1913;-37
2021/08/05 10:09:38;;;;;;;;;;;;;;;28.96;40.94;100294.19;5096129;28;831;-32
2021/08/05 10:12:25;;;;;;;;;;;;;;;28.98;40.87;100294.00;5095351;28;823;-33
2021/08/05 10:14:51;;;;;;;;;;;;;;;28.96;41.04;100288.78;5096144;28;847;-34
2021/08/05 10:17:18;;;;;;;;;;;;;;;29.19;40.60;100282.97;5096201;28;712;-28
2021/08/05 10:19:46;;;;;;;;;;;;;;;29.26;40.32;100274.81;5095306;28;927;-30
2021/08/05 10:22:12;;;;;;;;;;;;;;;29.23;40.47;100275.25;5096203;28;762;-30
2021/08/05 10:24:41;;;;;;;;;;;;;;;29.31;40.39;100274.22;5095694;28;1080;-28
2021/08/05 10:27:07;;;;;;;;;;;;;;;29.17;40.63;100276.09;5095663;28;1968;-28
2021/08/05 10:29:33;;;;;;;;;;;;;;;29.27;40.63;100281.09;5095632;28;863;-35
2021/08/05 10:31:58;;;;;;;;;;;;;;;29.27;40.86;100272.97;5095985;28;767;-35
2021/08/05 10:34:24;;;;;;;;;;;;;;;29.29;40.70;100281.72;5076662;28;973;-34
2021/08/05 10:36:50;;;;;;;;;;;;;;;29.17;40.92;100274.22;5095763;28;759;-34
2021/08/05 10:39:15;;;;;;;;;;;;;;;29.26;40.84;100274.00;5078263;28;823;-35
2021/08/05 10:41:41;;;;;;;;;;;;;;;27.09;45.66;100263.06;5077021;28;843;-30
2021/08/05 10:44:06;;;;;;;;;;;;;;;24.22;46.74;100260.16;5078566;28;1066;-32
2021/08/05 10:46:34;;;;;;;;;;;;;;;24.28;48.54;100256.75;5081148;28;1967;-30
2021/08/05 10:49:03;;;;;;;;;;;;;;;24.00;50.16;100254.50;5098701;28;890;-34
2021/08/05 10:51:32;;;;;;;;;;;;;;;23.81;51.02;100240.44;5098919;28;974;-29
2021/08/05 10:53:58;;;;;;;;;;;;;;;23.63;51.76;100254.09;5099356;28;1267;-34
2021/08/05 10:56:24;;;;;;;;;;;;;;;23.63;51.81;100248.72;5098857;28;803;-32
2021/08/05 10:59:16;;;;;;;;;;;;;;;24.43;50.54;100242.56;5081385;28;849;-34
2021/08/05 11:01:48;;;;;;;;;;;;;;;26.91;44.10;100247.31;5094860;28;1263;-36
2021/08/05 11:04:28;;;;;;;;;;;;;;;27.69;42.70;100240.28;5098628;28;788;-33
2021/08/05 11:06:53;;;;;;;;;;;;;;;28.03;42.31;100239.59;5078942;28;1961;-35
2021/08/05 11:09:29;;;;;;;;;;;;;;;28.31;41.58;100230.53;5078971;28;760;-31
2021/08/05 11:11:54;;;;;;;;;;;;;;;28.51;41.26;100236.00;5078324;28;833;-32
2021/08/05 11:14:26;;;;;;;;;;;;;;;28.58;41.24;100228.75;5078242;28;812;-34
2021/08/05 11:16:51;;;;;;;;;;;;;;;28.60;40.95;100220.41;5078825;28;866;-34
2021/08/05 11:19:26;;;;;;;;;;;;;;;28.71;40.81;100224.41;5078207;28;998;-33
2021/08/05 11:21:52;;;;;;;;;;;;;;;28.72;41.18;100217.94;5078309;28;776;-35
2021/08/05 11:24:36;;;;;;;;;;;;;;;28.90;40.93;100219.19;5081919;28;1148;-29
2021/08/05 11:27:14;;;;;;;;;;;;;;;29.07;40.29;100223.19;5097842;28;1963;-33
2021/08/05 11:29:39;;;;;;;;;;;;;;;29.25;40.35;100210.88;5098900;28;760;-33
2021/08/05 11:32:25;;;;;;;;;;;;;;;29.39;39.94;100217.09;5098664;28;803;-34
2021/08/05 11:34:57;;;;;;;;;;;;;;;29.46;39.93;100219.81;5097223;28;963;-29
2021/08/05 11:37:23;;;;;;;;;;;;;;;29.62;39.60;100217.69;5098850;28;791;-31
2021/08/05 11:39:49;;;;;;;;;;;;;;;29.60;39.71;100207.06;5098437;28;840;-32
2021/08/05 11:42:15;;;;;;;;;;;;;;;29.71;39.43;100197.47;5098242;28;771;-28
2021/08/05 11:44:41;;;;;;;;;;;;;;;29.77;39.44;100201.16;5098320;28;1529;-32
2021/08/05 11:47:07;;;;;;;;;;;;;;;29.73;39.71;100187.22;5098326;28;1971;-32
2021/08/05 11:49:59;;;;;;;;;;;;;;;29.80;39.80;100190.72;5097687;28;1017;-35
2021/08/05 11:52:27;;;;;;;;;;;;;;;29.89;39.44;100183.19;5089044;28;1281;-33
2021/08/05 11:55:07;;;;;;;;;;;;;;;29.92;39.59;100176.50;5097133;28;1205;-34
2021/08/05 11:57:56;;;;;;;;;;;;;;;29.99;39.55;100174.59;5098063;28;730;-33
2021/08/05 12:00:21;;;;;;;;;;;;;;;30.01;39.31;100177.91;5087376;28;1633;-34
2021/08/05 12:02:47;;;;;;;;;;;;;;;29.92;39.77;100174.63;5097847;28;792;-34
2021/08/05 12:05:13;;;;;;;;;;;;;;;29.85;39.90;100170.25;5097862;28;954;-35
2021/08/05 12:07:39;;;;;;;;;;;;;;;29.82;40.10;100166.97;5097598;28;1910;-29
2021/08/05 12:10:05;;;;;;;;;;;;;;;29.60;38.93;100165.56;5097481;28;818;-34
2021/08/05 12:12:43;;;;;;;;;;;;;;;28.71;38.98;100164.88;5097944;28;765;-34
2021/08/05 12:15:09;;;;;;;;;;;;;;;28.05;39.00;100159.09;5097304;28;922;-31
2021/08/05 12:17:35;;;;;;;;;;;;;;;28.32;38.14;100151.06;5097815;28;705;-29
2021/08/05 12:20:01;;;;;;;;;;;;;;;29.34;37.57;100147.28;5096966;28;907;-34
2021/08/05 12:22:30;;;;;;;;;;;;;;;29.58;37.89;100152.22;5097122;28;756;-31
2021/08/05 12:24:56;;;;;;;;;;;;;;;28.37;39.55;100154.00;5088640;28;1135;-34
2021/08/05 12:27:21;;;;;;;;;;;;;;;28.92;38.91;100144.00;5077326;28;1961;-34
2021/08/05 12:29:57;;;;;;;;;;;;;;;29.36;38.25;100144.38;5077249;28;804;-32
2021/08/05 12:32:22;;;;;;;;;;;;;;;29.57;38.15;100140.56;5058413;28;1098;-33
2021/08/05 12:34:47;;;;;;;;;;;;;;;29.73;38.15;100151.97;5081343;28;947;-31
2021/08/05 12:37:13;;;;;;;;;;;;;;;29.80;38.27;100151.94;5097464;28;803;-30
2021/08/05 12:39:38;;;;;;;;;;;;;;;29.84;38.11;100145.06;5097257;28;784;-34
2021/08/05 12:42:04;;;;;;;;;;;;;;;29.85;38.44;100144.00;5097187;28;812;-34
2021/08/05 12:44:31;;;;;;;;;;;;;;;29.91;38.45;100147.72;5096590;28;811;-33
2021/08/05 12:46:56;;;;;;;;;;;;;;;29.85;38.65;100141.28;5078787;28;1898;-33
2021/08/05 12:49:34;;;;;;;;;;;;;;;29.90;38.77;100146.88;5096406;28;978;-35
2021/08/05 12:52:00;;;;;;;;;;;;;;;29.28;36.05;100133.78;5076671;28;777;-32
2021/08/05 12:54:25;;;;;;;;;;;;;;;29.26;37.59;100131.25;5061199;28;1115;-30